sensor_id;sensor_type;location;lat;lon;timestamp;pressure;altitude;pressure_sealevel;temperature;humidity
8160;BME280;27404;52.398;9.646;2022-08-14T00:00:01;100740.44;;;19.36;100.00
8160;BME280;27404;52.398;9.646;2022-08-14T00:02:27;100745.69;;;19.37;100.00
8160;BME280;27404;52.398;9.646;2022-08-14T00:04:52;100734.00;;;19.41;100.00
8160;BME280;27404;52.398;9.646;2022-08-14T00:07:17;100747.66;;;19.37;100.00
8160;BME280;27404;52.398;9.646;2022-08-14T00:09:44;100744.38;;;19.30;100.00
8160;BME280;27404;52.398;9.646;2022-08-14T00:12:09;100746.13;;;19.20;100.00
8160;BME280;27404;52.398;9.646;2022-08-14T00:14:35;100753.97;;;19.13;100.00
8160;BME280;27404;52.398;9.646;2022-08-14T00:17:01;100752.34;;;19.07;100.00
8160;BME280;27404;52.398;9.646;2022-08-14T00:19:27;100750.50;;;18.97;100.00
8160;BME280;27404;52.398;9.646;2022-08-14T00:21:52;100743.31;;;18.96;100.00
8160;BME280;27404;52.398;9.646;2022-08-14T00:24:19;100747.16;;;18.95;100.00
8160;BME280;27404;52.398;9.646;2022-08-14T00:26:45;100753.81;;;18.94;100.00
8160;BME280;27404;52.398;9.646;2022-08-14T00:29:10;100751.09;;;18.89;100.00
8160;BME280;27404;52.398;9.646;2022-08-14T00:31:36;100754.66;;;18.89;100.00
8160;BME280;27404;52.398;9.646;2022-08-14T00:34:02;100760.22;;;18.89;100.00
8160;BME280;27404;52.398;9.646;2022-08-14T00:36:27;100749.41;;;18.93;100.00
8160;BME280;27404;52.398;9.646;2022-08-14T00:38:54;100749.66;;;18.91;100.00
8160;BME280;27404;52.398;9.646;2022-08-14T00:41:19;100743.31;;;18.91;100.00
8160;BME280;27404;52.398;9.646;2022-08-14T00:43:45;100739.44;;;18.92;100.00
8160;BME280;27404;52.398;9.646;2022-08-14T00:46:11;100735.34;;;18.84;100.00
8160;BME280;27404;52.398;9.646;2022-08-14T00:48:37;100742.84;;;18.78;100.00
8160;BME280;27404;52.398;9.646;2022-08-14T00:51:05;100740.97;;;18.74;100.00
8160;BME280;27404;52.398;9.646;2022-08-14T00:53:33;100729.38;;;18.67;100.00
8160;BME280;27404;52.398;9.646;2022-08-14T00:56:01;100728.34;;;18.57;100.00
8160;BME280;27404;52.398;9.646;2022-08-14T00:58:26;100731.13;;;18.52;100.00
8160;BME280;27404;52.398;9.646;2022-08-14T01:00:56;100725.63;;;18.47;100.00
8160;BME280;27404;52.398;9.646;2022-08-14T01:03:23;100725.41;;;18.43;100.00
8160;BME280;27404;52.398;9.646;2022-08-14T01:05:51;100716.81;;;18.40;100.00
8160;BME280;27404;52.398;9.646;2022-08-14T01:08:24;100716.56;;;18.36;100.00
8160;BME280;27404;52.398;9.646;2022-08-14T01:10:50;100707.75;;;18.34;100.00
8160;BME280;27404;52.398;9.646;2022-08-14T01:13:22;100705.53;;;18.31;100.00
8160;BME280;27404;52.398;9.646;2022-08-14T01:15:51;100709.16;;;18.26;100.00
8160;BME280;27404;52.398;9.646;2022-08-14T01:18:18;100712.75;;;18.27;100.00
8160;BME280;27404;52.398;9.646;2022-08-14T01:21:07;100703.63;;;18.26;100.00
8160;BME280;27404;52.398;9.646;2022-08-14T01:23:38;100707.78;;;18.24;100.00
8160;BME280;27404;52.398;9.646;2022-08-14T01:26:04;100713.09;;;18.20;100.00
8160;BME280;27404;52.398;9.646;2022-08-14T01:28:31;100701.91;;;18.35;100.00
8160;BME280;27404;52.398;9.646;2022-08-14T01:31:07;100702.38;;;18.48;100.00
8160;BME280;27404;52.398;9.646;2022-08-14T01:33:35;100699.31;;;18.55;100.00
8160;BME280;27404;52.398;9.646;2022-08-14T01:36:05;100696.88;;;18.43;100.00
8160;BME280;27404;52.398;9.646;2022-08-14T01:38:32;100701.94;;;18.30;100.00
8160;BME280;27404;52.398;9.646;2022-08-14T01:41:11;100689.22;;;18.24;100.00
8160;BME280;27404;52.398;9.646;2022-08-14T01:43:50;100689.28;;;18.19;100.00
8160;BME280;27404;52.398;9.646;2022-08-14T01:46:19;100685.94;;;18.22;100.00
8160;BME280;27404;52.398;9.646;2022-08-14T01:48:45;100685.69;;;18.18;100.00
8160;BME280;27404;52.398;9.646;2022-08-14T01:51:16;100687.41;;;18.09;100.00
8160;BME280;27404;52.398;9.646;2022-08-14T01:53:49;100689.38;;;18.03;100.00
8160;BME280;27404;52.398;9.646;2022-08-14T01:56:17;100681.31;;;18.07;100.00
8160;BME280;27404;52.398;9.646;2022-08-14T01:58:44;100680.78;;;18.05;100.00
8160;BME280;27404;52.398;9.646;2022-08-14T02:01:19;100675.78;;;18.07;100.00
8160;BME280;27404;52.398;9.646;2022-08-14T02:03:46;100680.47;;;18.17;100.00
8160;BME280;27404;52.398;9.646;2022-08-14T02:06:12;100672.44;;;18.15;100.00
8160;BME280;27404;52.398;9.646;2022-08-14T02:08:41;100669.69;;;18.10;100.00
8160;BME280;27404;52.398;9.646;2022-08-14T02:11:08;100676.91;;;18.06;100.00
8160;BME280;27404;52.398;9.646;2022-08-14T02:13:57;100667.50;;;18.07;100.00
8160;BME280;27404;52.398;9.646;2022-08-14T02:16:26;100667.19;;;18.14;100.00
8160;BME280;27404;52.398;9.646;2022-08-14T02:18:59;100660.50;;;18.20;100.00
8160;BME280;27404;52.398;9.646;2022-08-14T02:21:27;100659.91;;;18.23;100.00
8160;BME280;27404;52.398;9.646;2022-08-14T02:23:55;100664.34;;;18.24;100.00
8160;BME280;27404;52.398;9.646;2022-08-14T02:26:26;100654.38;;;18.23;100.00
8160;BME280;27404;52.398;9.646;2022-08-14T02:28:55;100655.78;;;18.20;100.00
8160;BME280;27404;52.398;9.646;2022-08-14T02:31:23;100649.50;;;18.10;100.00
8160;BME280;27404;52.398;9.646;2022-08-14T02:33:48;100653.69;;;18.02;100.00
8160;BME280;27404;52.398;9.646;2022-08-14T02:36:14;100655.91;;;17.95;100.00
8160;BME280;27404;52.398;9.646;2022-08-14T02:38:41;100651.25;;;17.90;100.00
8160;BME280;27404;52.398;9.646;2022-08-14T02:41:09;100653.97;;;17.95;100.00
8160;BME280;27404;52.398;9.646;2022-08-14T02:43:35;100643.72;;;18.06;100.00
8160;BME280;27404;52.398;9.646;2022-08-14T02:46:02;100649.72;;;18.18;100.00
8160;BME280;27404;52.398;9.646;2022-08-14T02:48:28;100639.72;;;18.23;100.00
8160;BME280;27404;52.398;9.646;2022-08-14T02:50:57;100629.84;;;18.11;100.00
8160;BME280;27404;52.398;9.646;2022-08-14T02:53:22;100634.56;;;18.11;100.00
8160;BME280;27404;52.398;9.646;2022-08-14T02:55:48;100638.16;;;18.11;100.00
8160;BME280;27404;52.398;9.646;2022-08-14T02:58:14;100633.47;;;18.07;100.00
8160;BME280;27404;52.398;9.646;2022-08-14T03:00:40;100623.81;;;18.04;100.00
8160;BME280;27404;52.398;9.646;2022-08-14T03:03:05;100630.22;;;17.99;100.00
8160;BME280;27404;52.398;9.646;2022-08-14T03:05:31;100627.69;;;17.98;100.00
8160;BME280;27404;52.398;9.646;2022-08-14T03:08:22;100625.47;;;17.95;100.00
8160;BME280;27404;52.398;9.646;2022-08-14T03:10:56;100625.25;;;17.91;100.00
8160;BME280;27404;52.398;9.646;2022-08-14T03:13:22;100631.56;;;18.02;100.00
8160;BME280;27404;52.398;9.646;2022-08-14T03:15:49;100621.88;;;18.04;100.00
8160;BME280;27404;52.398;9.646;2022-08-14T03:18:16;100626.31;;;18.05;100.00
8160;BME280;27404;52.398;9.646;2022-08-14T03:20:42;100624.09;;;18.02;100.00
8160;BME280;27404;52.398;9.646;2022-08-14T03:23:07;100619.69;;;18.01;100.00
8160;BME280;27404;52.398;9.646;2022-08-14T03:25:33;100616.91;;;17.96;100.00
8160;BME280;27404;52.398;9.646;2022-08-14T03:28:06;100614.69;;;18.03;100.00
8160;BME280;27404;52.398;9.646;2022-08-14T03:30:33;100610.00;;;17.94;100.00
8160;BME280;27404;52.398;9.646;2022-08-14T03:32:59;100602.88;;;17.87;100.00
8160;BME280;27404;52.398;9.646;2022-08-14T03:35:25;100607.88;;;17.85;100.00
8160;BME280;27404;52.398;9.646;2022-08-14T03:37:51;100610.38;;;17.76;100.00
8160;BME280;27404;52.398;9.646;2022-08-14T03:40:20;100613.19;;;17.71;100.00
8160;BME280;27404;52.398;9.646;2022-08-14T03:42:47;100597.19;;;17.63;100.00
8160;BME280;27404;52.398;9.646;2022-08-14T03:45:13;100605.28;;;17.49;100.00
8160;BME280;27404;52.398;9.646;2022-08-14T03:47:41;100592.34;;;17.39;100.00
8160;BME280;27404;52.398;9.646;2022-08-14T03:50:08;100599.81;;;17.34;100.00
8160;BME280;27404;52.398;9.646;2022-08-14T03:52:39;100600.66;;;17.29;100.00
8160;BME280;27404;52.398;9.646;2022-08-14T03:55:07;100595.94;;;17.29;100.00
8160;BME280;27404;52.398;9.646;2022-08-14T03:57:33;100591.53;;;17.28;100.00
8160;BME280;27404;52.398;9.646;2022-08-14T04:00:04;100597.59;;;17.36;100.00
8160;BME280;27404;52.398;9.646;2022-08-14T04:02:33;100593.66;;;17.47;100.00
8160;BME280;27404;52.398;9.646;2022-08-14T04:04:59;100587.25;;;17.57;100.00
8160;BME280;27404;52.398;9.646;2022-08-14T04:07:25;100588.31;;;17.66;100.00
8160;BME280;27404;52.398;9.646;2022-08-14T04:09:51;100580.56;;;17.68;100.00
8160;BME280;27404;52.398;9.646;2022-08-14T04:12:16;100587.22;;;17.67;100.00
8160;BME280;27404;52.398;9.646;2022-08-14T04:14:44;100579.47;;;17.69;100.00
8160;BME280;27404;52.398;9.646;2022-08-14T04:17:10;100574.78;;;17.70;100.00
8160;BME280;27404;52.398;9.646;2022-08-14T04:19:36;100577.50;;;17.75;100.00
8160;BME280;27404;52.398;9.646;2022-08-14T04:22:02;100583.59;;;17.77;100.00
8160;BME280;27404;52.398;9.646;2022-08-14T04:24:28;100583.81;;;17.81;100.00
8160;BME280;27404;52.398;9.646;2022-08-14T04:26:53;100581.91;;;17.81;100.00
8160;BME280;27404;52.398;9.646;2022-08-14T04:29:19;100583.81;;;17.81;100.00
8160;BME280;27404;52.398;9.646;2022-08-14T04:31:45;100575.84;;;17.74;100.00
8160;BME280;27404;52.398;9.646;2022-08-14T04:34:11;100571.16;;;17.69;100.00
8160;BME280;27404;52.398;9.646;2022-08-14T04:36:37;100567.84;;;17.72;100.00
8160;BME280;27404;52.398;9.646;2022-08-14T04:39:22;100565.31;;;17.81;100.00
8160;BME280;27404;52.398;9.646;2022-08-14T04:42:06;100570.50;;;17.88;100.00
8160;BME280;27404;52.398;9.646;2022-08-14T04:44:50;100565.50;;;17.90;100.00
8160;BME280;27404;52.398;9.646;2022-08-14T04:47:17;100562.41;;;17.97;100.00
8160;BME280;27404;52.398;9.646;2022-08-14T04:50:04;100566.78;;;18.08;100.00
8160;BME280;27404;52.398;9.646;2022-08-14T04:52:30;100564.78;;;18.19;100.00
8160;BME280;27404;52.398;9.646;2022-08-14T04:54:55;100560.84;;;18.25;100.00
8160;BME280;27404;52.398;9.646;2022-08-14T04:57:22;100552.50;;;18.30;100.00
8160;BME280;27404;52.398;9.646;2022-08-14T04:59:47;100550.50;;;18.41;100.00
8160;BME280;27404;52.398;9.646;2022-08-14T05:02:12;100548.97;;;18.54;100.00
8160;BME280;27404;52.398;9.646;2022-08-14T05:04:40;100552.50;;;18.60;100.00
8160;BME280;27404;52.398;9.646;2022-08-14T05:07:06;100543.81;;;18.72;100.00
8160;BME280;27404;52.398;9.646;2022-08-14T05:09:31;100544.84;;;18.81;100.00
8160;BME280;27404;52.398;9.646;2022-08-14T05:11:57;100537.75;;;18.94;100.00
8160;BME280;27404;52.398;9.646;2022-08-14T05:14:22;100548.69;;;19.09;100.00
8160;BME280;27404;52.398;9.646;2022-08-14T05:16:48;100545.63;;;19.11;100.00
8160;BME280;27404;52.398;9.646;2022-08-14T05:19:14;100545.56;;;19.16;100.00
8160;BME280;27404;52.398;9.646;2022-08-14T05:21:40;100545.50;;;19.21;100.00
8160;BME280;27404;52.398;9.646;2022-08-14T05:24:07;100545.91;;;19.34;100.00
8160;BME280;27404;52.398;9.646;2022-08-14T05:26:35;100548.75;;;19.48;100.00
8160;BME280;27404;52.398;9.646;2022-08-14T05:29:04;100547.56;;;19.54;100.00
8160;BME280;27404;52.398;9.646;2022-08-14T05:31:33;100538.78;;;19.66;100.00
8160;BME280;27404;52.398;9.646;2022-08-14T05:34:01;100541.34;;;19.81;100.00
8160;BME280;27404;52.398;9.646;2022-08-14T05:36:26;100538.50;;;19.87;100.00
8160;BME280;27404;52.398;9.646;2022-08-14T05:38:53;100536.19;;;19.94;100.00
8160;BME280;27404;52.398;9.646;2022-08-14T05:41:18;100530.41;;;20.09;100.00
8160;BME280;27404;52.398;9.646;2022-08-14T05:43:45;100526.63;;;20.19;100.00
8160;BME280;27404;52.398;9.646;2022-08-14T05:46:14;100518.13;;;20.30;100.00
8160;BME280;27404;52.398;9.646;2022-08-14T05:48:40;100515.47;;;20.38;100.00
8160;BME280;27404;52.398;9.646;2022-08-14T05:51:06;100515.69;;;20.42;100.00
8160;BME280;27404;52.398;9.646;2022-08-14T05:53:31;100511.19;;;20.60;100.00
8160;BME280;27404;52.398;9.646;2022-08-14T05:55:57;100506.94;;;20.63;100.00
8160;BME280;27404;52.398;9.646;2022-08-14T05:58:24;100513.38;;;20.77;100.00
8160;BME280;27404;52.398;9.646;2022-08-14T06:00:50;100513.69;;;21.54;100.00
8160;BME280;27404;52.398;9.646;2022-08-14T06:03:18;100511.03;;;24.53;85.71
8160;BME280;27404;52.398;9.646;2022-08-14T06:05:48;100523.75;;;27.46;61.40
8160;BME280;27404;52.398;9.646;2022-08-14T06:08:19;100524.75;;;29.51;51.56
8160;BME280;27404;52.398;9.646;2022-08-14T06:10:45;100525.19;;;31.25;43.38
8160;BME280;27404;52.398;9.646;2022-08-14T06:13:12;100534.44;;;31.53;41.46
8160;BME280;27404;52.398;9.646;2022-08-14T06:15:38;100528.59;;;32.78;39.21
8160;BME280;27404;52.398;9.646;2022-08-14T06:18:03;100520.97;;;34.49;35.49
8160;BME280;27404;52.398;9.646;2022-08-14T06:20:29;100521.88;;;36.07;32.64
8160;BME280;27404;52.398;9.646;2022-08-14T06:22:55;100527.09;;;36.20;31.51
8160;BME280;27404;52.398;9.646;2022-08-14T06:25:21;100520.44;;;36.41;31.15
8160;BME280;27404;52.398;9.646;2022-08-14T06:27:48;100521.06;;;36.10;31.48
8160;BME280;27404;52.398;9.646;2022-08-14T06:30:16;100521.44;;;36.12;31.09
8160;BME280;27404;52.398;9.646;2022-08-14T06:32:42;100517.69;;;35.30;32.10
8160;BME280;27404;52.398;9.646;2022-08-14T06:35:09;100529.81;;;35.49;31.82
8160;BME280;27404;52.398;9.646;2022-08-14T06:40:09;100527.31;;;35.76;31.42
8160;BME280;27404;52.398;9.646;2022-08-14T06:42:35;100520.53;;;35.23;31.35
8160;BME280;27404;52.398;9.646;2022-08-14T06:45:01;100521.34;;;35.23;32.42
8160;BME280;27404;52.398;9.646;2022-08-14T06:47:26;100527.22;;;36.01;31.48
8160;BME280;27404;52.398;9.646;2022-08-14T06:49:52;100522.44;;;35.69;31.38
8160;BME280;27404;52.398;9.646;2022-08-14T06:52:17;100531.09;;;34.50;32.38
8160;BME280;27404;52.398;9.646;2022-08-14T06:54:43;100532.75;;;34.69;32.91
8160;BME280;27404;52.398;9.646;2022-08-14T06:57:09;100533.16;;;34.67;32.68
8160;BME280;27404;52.398;9.646;2022-08-14T06:59:34;100522.06;;;33.97;34.01
8160;BME280;27404;52.398;9.646;2022-08-14T07:02:00;100526.13;;;34.14;33.42
8160;BME280;27404;52.398;9.646;2022-08-14T07:04:44;100530.59;;;34.08;33.72
8160;BME280;27404;52.398;9.646;2022-08-14T07:07:39;100531.03;;;32.80;35.95
8160;BME280;27404;52.398;9.646;2022-08-14T07:10:07;100512.50;;;32.41;37.57
8160;BME280;27404;52.398;9.646;2022-08-14T07:12:33;100517.19;;;31.61;38.86
8160;BME280;27404;52.398;9.646;2022-08-14T07:14:59;100516.06;;;31.36;40.17
8160;BME280;27404;52.398;9.646;2022-08-14T07:17:24;100514.22;;;31.20;40.56
8160;BME280;27404;52.398;9.646;2022-08-14T07:19:51;100510.19;;;30.48;42.93
8160;BME280;27404;52.398;9.646;2022-08-14T07:22:16;100505.41;;;29.14;47.38
8160;BME280;27404;52.398;9.646;2022-08-14T07:24:42;100504.25;;;28.67;50.14
8160;BME280;27404;52.398;9.646;2022-08-14T07:27:07;100510.69;;;28.07;57.31
8160;BME280;27404;52.398;9.646;2022-08-14T07:29:33;100509.31;;;27.72;56.44
8160;BME280;27404;52.398;9.646;2022-08-14T07:31:58;100511.41;;;27.10;59.67
8160;BME280;27404;52.398;9.646;2022-08-14T07:34:24;100507.34;;;26.82;61.73
8160;BME280;27404;52.398;9.646;2022-08-14T07:36:49;100515.25;;;26.80;63.16
8160;BME280;27404;52.398;9.646;2022-08-14T07:39:15;100513.38;;;26.84;62.47
8160;BME280;27404;52.398;9.646;2022-08-14T07:41:40;100508.72;;;27.01;61.87
8160;BME280;27404;52.398;9.646;2022-08-14T07:44:09;100516.09;;;26.93;60.58
8160;BME280;27404;52.398;9.646;2022-08-14T07:46:35;100519.53;;;26.65;62.52
8160;BME280;27404;52.398;9.646;2022-08-14T07:49:02;100512.13;;;26.36;65.88
8160;BME280;27404;52.398;9.646;2022-08-14T07:51:28;100512.28;;;26.39;64.41
8160;BME280;27404;52.398;9.646;2022-08-14T07:53:56;100520.47;;;26.11;66.40
8160;BME280;27404;52.398;9.646;2022-08-14T07:56:21;100524.28;;;26.06;66.05
8160;BME280;27404;52.398;9.646;2022-08-14T07:58:47;100519.00;;;26.26;66.51
8160;BME280;27404;52.398;9.646;2022-08-14T08:01:13;100514.22;;;26.05;67.18
8160;BME280;27404;52.398;9.646;2022-08-14T08:03:41;100510.22;;;25.94;67.61
8160;BME280;27404;52.398;9.646;2022-08-14T08:06:07;100516.00;;;25.76;69.06
8160;BME280;27404;52.398;9.646;2022-08-14T08:08:33;100525.84;;;25.95;68.05
8160;BME280;27404;52.398;9.646;2022-08-14T08:11:00;100516.50;;;26.12;67.74
8160;BME280;27404;52.398;9.646;2022-08-14T08:13:26;100511.19;;;26.31;67.24
8160;BME280;27404;52.398;9.646;2022-08-14T08:15:54;100515.69;;;26.57;66.30
8160;BME280;27404;52.398;9.646;2022-08-14T08:18:24;100512.78;;;26.79;65.81
8160;BME280;27404;52.398;9.646;2022-08-14T08:20:52;100516.19;;;26.72;64.04
8160;BME280;27404;52.398;9.646;2022-08-14T08:23:21;100519.09;;;26.75;63.12
8160;BME280;27404;52.398;9.646;2022-08-14T08:25:49;100514.53;;;26.71;63.46
8160;BME280;27404;52.398;9.646;2022-08-14T08:28:21;100506.59;;;26.73;62.70
8160;BME280;27404;52.398;9.646;2022-08-14T08:30:50;100506.69;;;26.76;63.51
8160;BME280;27404;52.398;9.646;2022-08-14T08:33:18;100504.03;;;27.17;63.32
8160;BME280;27404;52.398;9.646;2022-08-14T08:35:44;100506.13;;;27.33;61.55
8160;BME280;27404;52.398;9.646;2022-08-14T08:38:11;100509.94;;;27.66;58.41
8160;BME280;27404;52.398;9.646;2022-08-14T08:40:40;100511.44;;;27.91;56.31
8160;BME280;27404;52.398;9.646;2022-08-14T08:43:15;100509.44;;;28.04;56.42
8160;BME280;27404;52.398;9.646;2022-08-14T08:45:41;100508.81;;;27.83;56.46
8160;BME280;27404;52.398;9.646;2022-08-14T08:48:07;100498.72;;;27.53;56.83
8160;BME280;27404;52.398;9.646;2022-08-14T08:50:36;100491.34;;;27.89;57.02
8160;BME280;27404;52.398;9.646;2022-08-14T08:53:06;100493.38;;;28.05;54.87
8160;BME280;27404;52.398;9.646;2022-08-14T08:55:37;100489.13;;;28.11;54.60
8160;BME280;27404;52.398;9.646;2022-08-14T08:58:11;100481.56;;;28.28;53.79
8160;BME280;27404;52.398;9.646;2022-08-14T09:00:39;100480.03;;;28.30;53.77
8160;BME280;27404;52.398;9.646;2022-08-14T09:03:10;100485.25;;;28.16;55.14
8160;BME280;27404;52.398;9.646;2022-08-14T09:05:37;100478.69;;;28.40;53.73
8160;BME280;27404;52.398;9.646;2022-08-14T09:08:12;100475.03;;;28.40;54.23
8160;BME280;27404;52.398;9.646;2022-08-14T09:10:38;100470.59;;;28.22;55.23
8160;BME280;27404;52.398;9.646;2022-08-14T09:13:04;100474.22;;;28.23;55.86
8160;BME280;27404;52.398;9.646;2022-08-14T09:15:29;100459.00;;;28.40;54.82
8160;BME280;27404;52.398;9.646;2022-08-14T09:17:56;100461.09;;;28.43;55.08
8160;BME280;27404;52.398;9.646;2022-08-14T09:20:22;100458.28;;;28.59;53.06
8160;BME280;27404;52.398;9.646;2022-08-14T09:22:48;100452.28;;;28.61;50.93
8160;BME280;27404;52.398;9.646;2022-08-14T09:25:17;100447.94;;;28.63;53.47
8160;BME280;27404;52.398;9.646;2022-08-14T09:27:43;100436.69;;;28.47;52.30
8160;BME280;27404;52.398;9.646;2022-08-14T09:30:09;100443.50;;;28.46;52.38
8160;BME280;27404;52.398;9.646;2022-08-14T09:44:04;100419.44;;;28.49;51.32
8160;BME280;27404;52.398;9.646;2022-08-14T09:46:31;100416.91;;;28.76;50.73
8160;BME280;27404;52.398;9.646;2022-08-14T09:49:00;100413.50;;;28.86;46.76
8160;BME280;27404;52.398;9.646;2022-08-14T09:51:27;100404.00;;;28.91;46.65
8160;BME280;27404;52.398;9.646;2022-08-14T09:54:03;100392.28;;;28.89;45.50
8160;BME280;27404;52.398;9.646;2022-08-14T09:56:50;100404.22;;;28.50;47.03
8160;BME280;27404;52.398;9.646;2022-08-14T09:59:17;100402.94;;;28.63;47.65
8160;BME280;27404;52.398;9.646;2022-08-14T10:01:47;100401.25;;;28.94;47.42
8160;BME280;27404;52.398;9.646;2022-08-14T10:04:24;100398.31;;;29.07;46.22
8160;BME280;27404;52.398;9.646;2022-08-14T10:06:53;100395.66;;;29.14;45.08
8160;BME280;27404;52.398;9.646;2022-08-14T10:09:19;100391.19;;;29.13;45.32
8160;BME280;27404;52.398;9.646;2022-08-14T10:11:57;100398.03;;;29.32;45.90
8160;BME280;27404;52.398;9.646;2022-08-14T10:14:26;100385.31;;;29.38;45.13
8160;BME280;27404;52.398;9.646;2022-08-14T10:16:54;100380.84;;;29.37;44.06
8160;BME280;27404;52.398;9.646;2022-08-14T10:19:25;100379.50;;;29.31;44.87
8160;BME280;27404;52.398;9.646;2022-08-14T10:22:01;100374.94;;;29.42;45.49
8160;BME280;27404;52.398;9.646;2022-08-14T10:24:35;100379.91;;;29.49;45.50
8160;BME280;27404;52.398;9.646;2022-08-14T10:27:04;100384.63;;;29.64;45.76
8160;BME280;27404;52.398;9.646;2022-08-14T10:29:37;100377.06;;;29.49;45.10
8160;BME280;27404;52.398;9.646;2022-08-14T10:32:04;100377.31;;;29.40;46.27
8160;BME280;27404;52.398;9.646;2022-08-14T10:34:34;100366.31;;;29.35;45.04
8160;BME280;27404;52.398;9.646;2022-08-14T10:37:06;100360.69;;;29.54;43.46
8160;BME280;27404;52.398;9.646;2022-08-14T10:39:33;100365.66;;;29.42;44.76
8160;BME280;27404;52.398;9.646;2022-08-14T10:42:06;100365.22;;;29.39;44.42
8160;BME280;27404;52.398;9.646;2022-08-14T10:44:40;100364.97;;;29.48;44.53
8160;BME280;27404;52.398;9.646;2022-08-14T10:47:10;100352.53;;;29.49;43.36
8160;BME280;27404;52.398;9.646;2022-08-14T10:49:38;100360.06;;;29.65;43.61
8160;BME280;27404;52.398;9.646;2022-08-14T10:52:20;100348.47;;;29.47;43.36
8160;BME280;27404;52.398;9.646;2022-08-14T10:54:46;100341.53;;;29.64;43.36
8160;BME280;27404;52.398;9.646;2022-08-14T11:02:24;100331.88;;;30.08;41.46
8160;BME280;27404;52.398;9.646;2022-08-14T11:07:30;100321.50;;;30.66;41.56
8160;BME280;27404;52.398;9.646;2022-08-14T11:09:57;100318.91;;;30.84;40.77
8160;BME280;27404;52.398;9.646;2022-08-14T11:12:24;100320.38;;;31.05;39.56
8160;BME280;27404;52.398;9.646;2022-08-14T11:14:55;100315.16;;;30.72;40.09
8160;BME280;27404;52.398;9.646;2022-08-14T11:17:25;100312.31;;;31.03;40.14
8160;BME280;27404;52.398;9.646;2022-08-14T11:19:56;100314.72;;;31.01;40.25
8160;BME280;27404;52.398;9.646;2022-08-14T11:22:25;100315.25;;;31.14;39.00
8160;BME280;27404;52.398;9.646;2022-08-14T11:24:53;100299.25;;;30.91;39.39
8160;BME280;27404;52.398;9.646;2022-08-14T11:27:22;100303.13;;;30.52;39.97
8160;BME280;27404;52.398;9.646;2022-08-14T11:29:50;100304.13;;;30.10;40.15
8160;BME280;27404;52.398;9.646;2022-08-14T11:32:16;100310.84;;;30.02;40.50
8160;BME280;27404;52.398;9.646;2022-08-14T11:34:45;100310.63;;;30.14;40.70
8160;BME280;27404;52.398;9.646;2022-08-14T11:37:11;100294.00;;;30.32;39.68
8160;BME280;27404;52.398;9.646;2022-08-14T11:39:37;100295.03;;;30.20;40.67
8160;BME280;27404;52.398;9.646;2022-08-14T11:42:04;100294.41;;;30.34;40.34
8160;BME280;27404;52.398;9.646;2022-08-14T11:44:30;100296.66;;;30.21;39.50
8160;BME280;27404;52.398;9.646;2022-08-14T11:46:56;100283.03;;;30.27;39.48
8160;BME280;27404;52.398;9.646;2022-08-14T11:49:27;100270.56;;;30.28;39.63
8160;BME280;27404;52.398;9.646;2022-08-14T11:51:55;100280.28;;;30.31;39.21
8160;BME280;27404;52.398;9.646;2022-08-14T11:54:21;100274.16;;;29.98;39.70
8160;BME280;27404;52.398;9.646;2022-08-14T11:56:47;100261.69;;;29.99;39.54
8160;BME280;27404;52.398;9.646;2022-08-14T11:59:18;100272.84;;;30.19;38.94
8160;BME280;27404;52.398;9.646;2022-08-14T12:01:47;100264.34;;;30.15;38.59
8160;BME280;27404;52.398;9.646;2022-08-14T12:04:18;100257.94;;;30.18;38.92
8160;BME280;27404;52.398;9.646;2022-08-14T12:06:49;100263.31;;;30.00;39.82
8160;BME280;27404;52.398;9.646;2022-08-14T12:09:31;100253.13;;;29.95;37.95
8160;BME280;27404;52.398;9.646;2022-08-14T12:11:56;100254.47;;;30.02;37.76
8160;BME280;27404;52.398;9.646;2022-08-14T12:14:22;100251.16;;;30.23;38.28
8160;BME280;27404;52.398;9.646;2022-08-14T12:17:05;100242.84;;;30.03;37.87
8160;BME280;27404;52.398;9.646;2022-08-14T12:19:45;100235.34;;;29.91;38.22
8160;BME280;27404;52.398;9.646;2022-08-14T12:22:11;100226.94;;;30.18;38.63
8160;BME280;27404;52.398;9.646;2022-08-14T12:24:37;100228.97;;;29.94;38.08
8160;BME280;27404;52.398;9.646;2022-08-14T12:27:02;100241.38;;;29.90;38.42
8160;BME280;27404;52.398;9.646;2022-08-14T12:29:28;100235.13;;;30.00;38.40
8160;BME280;27404;52.398;9.646;2022-08-14T12:32:02;100247.66;;;30.29;38.01
8160;BME280;27404;52.398;9.646;2022-08-14T12:34:33;100236.19;;;30.46;37.57
8160;BME280;27404;52.398;9.646;2022-08-14T12:37:04;100226.75;;;30.61;37.44
8160;BME280;27404;52.398;9.646;2022-08-14T12:39:30;100232.31;;;30.57;37.28
8160;BME280;27404;52.398;9.646;2022-08-14T12:41:58;100225.13;;;30.60;36.99
8160;BME280;27404;52.398;9.646;2022-08-14T12:44:41;100226.88;;;30.72;37.24
8160;BME280;27404;52.398;9.646;2022-08-14T12:47:13;100224.09;;;30.76;37.15
8160;BME280;27404;52.398;9.646;2022-08-14T12:49:52;100221.41;;;30.86;36.91
8160;BME280;27404;52.398;9.646;2022-08-14T12:52:38;100217.88;;;30.63;37.12
8160;BME280;27404;52.398;9.646;2022-08-14T12:55:15;100198.22;;;30.39;37.61
8160;BME280;27404;52.398;9.646;2022-08-14T12:57:43;100199.84;;;30.40;38.08
8160;BME280;27404;52.398;9.646;2022-08-14T13:00:10;100188.63;;;30.13;38.63
8160;BME280;27404;52.398;9.646;2022-08-14T13:02:40;100196.31;;;29.90;38.51
8160;BME280;27404;52.398;9.646;2022-08-14T13:05:07;100189.63;;;29.98;38.43
8160;BME280;27404;52.398;9.646;2022-08-14T13:07:37;100186.28;;;30.19;38.14
8160;BME280;27404;52.398;9.646;2022-08-14T13:10:10;100180.63;;;30.19;37.96
8160;BME280;27404;52.398;9.646;2022-08-14T13:12:37;100179.31;;;30.09;38.09
8160;BME280;27404;52.398;9.646;2022-08-14T13:15:05;100175.53;;;29.98;38.03
8160;BME280;27404;52.398;9.646;2022-08-14T13:17:31;100170.09;;;30.12;38.30
8160;BME280;27404;52.398;9.646;2022-08-14T13:19:59;100159.75;;;30.24;37.65
8160;BME280;27404;52.398;9.646;2022-08-14T13:22:26;100160.44;;;30.44;37.34